sensor_id;sensor_type;location;lat;lon;timestamp;pressure;altitude;pressure_sealevel;temperature;humidity
69784;BME280;57054;51.978;4.498;2022-12-07T00:01:31;101948.75;;;4.46;100.00
69784;BME280;57054;51.978;4.498;2022-12-07T00:03:58;101943.56;;;4.46;100.00
69784;BME280;57054;51.978;4.498;2022-12-07T00:06:29;101940.09;;;4.45;100.00
69784;BME280;57054;51.978;4.498;2022-12-07T00:08:55;101934.94;;;4.47;100.00
69784;BME280;57054;51.978;4.498;2022-12-07T00:11:21;101922.81;;;4.47;100.00
69784;BME280;57054;51.978;4.498;2022-12-07T00:13:47;101926.28;;;4.48;100.00
69784;BME280;57054;51.978;4.498;2022-12-07T00:16:16;101922.81;;;4.47;100.00
69784;BME280;57054;51.978;4.498;2022-12-07T00:18:42;101921.09;;;4.51;100.00
69784;BME280;57054;51.978;4.498;2022-12-07T00:21:14;101914.19;;;4.50;100.00
69784;BME280;57054;51.978;4.498;2022-12-07T00:23:40;101916.78;;;4.51;100.00
69784;BME280;57054;51.978;4.498;2022-12-07T00:26:06;101915.03;;;4.50;100.00
69784;BME280;57054;51.978;4.498;2022-12-07T00:28:32;101924.56;;;4.51;100.00
69784;BME280;57054;51.978;4.498;2022-12-07T00:31:05;101913.31;;;4.51;100.00
69784;BME280;57054;51.978;4.498;2022-12-07T00:33:31;101915.03;;;4.50;100.00
69784;BME280;57054;51.978;4.498;2022-12-07T00:35:57;101915.91;;;4.51;100.00
69784;BME280;57054;51.978;4.498;2022-12-07T00:38:22;101913.28;;;4.49;100.00
69784;BME280;57054;51.978;4.498;2022-12-07T00:40:57;101918.47;;;4.49;100.00
69784;BME280;57054;51.978;4.498;2022-12-07T00:43:23;101921.09;;;4.48;100.00
69784;BME280;57054;51.978;4.498;2022-12-07T00:45:48;101920.22;;;4.47;100.00
69784;BME280;57054;51.978;4.498;2022-12-07T00:48:13;101908.13;;;4.46;100.00
69784;BME280;57054;51.978;4.498;2022-12-07T00:50:38;101915.91;;;4.45;100.00
69784;BME280;57054;51.978;4.498;2022-12-07T00:53:04;101919.34;;;4.43;100.00
69784;BME280;57054;51.978;4.498;2022-12-07T00:55:32;101918.47;;;4.41;100.00
69784;BME280;57054;51.978;4.498;2022-12-07T00:57:57;101918.47;;;4.40;100.00
69784;BME280;57054;51.978;4.498;2022-12-07T01:00:23;101917.63;;;4.39;100.00
69784;BME280;57054;51.978;4.498;2022-12-07T01:02:48;101923.66;;;4.37;100.00
69784;BME280;57054;51.978;4.498;2022-12-07T01:05:13;101922.81;;;4.35;100.00
69784;BME280;57054;51.978;4.498;2022-12-07T01:07:39;101920.19;;;4.32;100.00
69784;BME280;57054;51.978;4.498;2022-12-07T01:10:04;101922.78;;;4.30;100.00
69784;BME280;57054;51.978;4.498;2022-12-07T01:12:29;101912.38;;;4.27;100.00
69784;BME280;57054;51.978;4.498;2022-12-07T01:14:54;101921.91;;;4.27;100.00
69784;BME280;57054;51.978;4.498;2022-12-07T01:17:20;101920.16;;;4.26;100.00
69784;BME280;57054;51.978;4.498;2022-12-07T01:19:45;101914.09;;;4.23;100.00
69784;BME280;57054;51.978;4.498;2022-12-07T01:22:10;101917.59;;;4.22;100.00
69784;BME280;57054;51.978;4.498;2022-12-07T01:24:36;101920.16;;;4.21;100.00
69784;BME280;57054;51.978;4.498;2022-12-07T01:27:01;101913.22;;;4.20;100.00
69784;BME280;57054;51.978;4.498;2022-12-07T01:29:26;101914.97;;;4.18;100.00
69784;BME280;57054;51.978;4.498;2022-12-07T01:31:52;101914.09;;;4.16;100.00
69784;BME280;57054;51.978;4.498;2022-12-07T01:34:17;101914.97;;;4.13;100.00
69784;BME280;57054;51.978;4.498;2022-12-07T01:36:42;101910.63;;;4.11;100.00
69784;BME280;57054;51.978;4.498;2022-12-07T01:39:08;101904.56;;;4.09;100.00
69784;BME280;57054;51.978;4.498;2022-12-07T01:41:35;101915.81;;;4.08;100.00
69784;BME280;57054;51.978;4.498;2022-12-07T01:46:46;101911.44;;;4.02;100.00
69784;BME280;57054;51.978;4.498;2022-12-07T01:49:23;101922.69;;;4.01;100.00
69784;BME280;57054;51.978;4.498;2022-12-07T01:51:50;101933.03;;;3.98;100.00
69784;BME280;57054;51.978;4.498;2022-12-07T01:54:16;101935.63;;;3.96;100.00
69784;BME280;57054;51.978;4.498;2022-12-07T01:56:45;101923.53;;;3.95;100.00
69784;BME280;57054;51.978;4.498;2022-12-07T01:59:11;101923.53;;;3.95;100.00
69784;BME280;57054;51.978;4.498;2022-12-07T02:01:37;101922.66;;;3.96;100.00
69784;BME280;57054;51.978;4.498;2022-12-07T02:04:03;101914.88;;;3.96;100.00
69784;BME280;57054;51.978;4.498;2022-12-07T02:06:28;101915.75;;;3.97;100.00
69784;BME280;57054;51.978;4.498;2022-12-07T02:08:54;101905.41;;;3.97;100.00
69784;BME280;57054;51.978;4.498;2022-12-07T02:11:19;101905.41;;;3.97;100.00
69784;BME280;57054;51.978;4.498;2022-12-07T02:13:45;101900.22;;;3.97;100.00
69784;BME280;57054;51.978;4.498;2022-12-07T02:34:31;101906.25;;;3.90;100.00
69784;BME280;57054;51.978;4.498;2022-12-07T02:36:58;101900.19;;;3.88;100.00
69784;BME280;57054;51.978;4.498;2022-12-07T02:41:51;101891.50;;;3.85;100.00
69784;BME280;57054;51.978;4.498;2022-12-07T02:44:20;101890.66;;;3.85;100.00
69784;BME280;57054;51.978;4.498;2022-12-07T02:46:54;101892.41;;;3.86;100.00
69784;BME280;57054;51.978;4.498;2022-12-07T02:49:21;101903.63;;;3.87;100.00
69784;BME280;57054;51.978;4.498;2022-12-07T02:51:47;101903.59;;;3.85;100.00
69784;BME280;57054;51.978;4.498;2022-12-07T02:54:13;101896.72;;;3.84;100.00
69784;BME280;57054;51.978;4.498;2022-12-07T03:06:58;101905.31;;;3.81;100.00
69784;BME280;57054;51.978;4.498;2022-12-07T03:09:32;101904.44;;;3.79;100.00
69784;BME280;57054;51.978;4.498;2022-12-07T03:12:03;101895.81;;;3.79;100.00
69784;BME280;57054;51.978;4.498;2022-12-07T03:14:34;101891.47;;;3.78;100.00
69784;BME280;57054;51.978;4.498;2022-12-07T03:17:20;101892.38;;;3.78;100.00
69784;BME280;57054;51.978;4.498;2022-12-07T03:19:49;101890.63;;;3.79;100.00
69784;BME280;57054;51.978;4.498;2022-12-07T03:22:16;101888.03;;;3.79;100.00
69784;BME280;57054;51.978;4.498;2022-12-07T03:24:52;101890.63;;;3.79;100.00
69784;BME280;57054;51.978;4.498;2022-12-07T03:27:20;101893.22;;;3.79;100.00
69784;BME280;57054;51.978;4.498;2022-12-07T03:29:48;101893.22;;;3.79;100.00
69784;BME280;57054;51.978;4.498;2022-12-07T03:32:29;101882.00;;;3.78;100.00
69784;BME280;57054;51.978;4.498;2022-12-07T03:37:29;101873.34;;;3.78;100.00
69784;BME280;57054;51.978;4.498;2022-12-07T03:42:21;101894.97;;;3.78;100.00
69784;BME280;57054;51.978;4.498;2022-12-07T03:44:47;101877.66;;;3.77;100.00
69784;BME280;57054;51.978;4.498;2022-12-07T03:47:13;101869.06;;;3.78;100.00
69784;BME280;57054;51.978;4.498;2022-12-07T03:49:45;101871.63;;;3.77;100.00
69784;BME280;57054;51.978;4.498;2022-12-07T03:52:24;101874.22;;;3.75;100.00
69784;BME280;57054;51.978;4.498;2022-12-07T03:55:02;101870.75;;;3.78;100.00
69784;BME280;57054;51.978;4.498;2022-12-07T03:57:30;101865.56;;;3.78;100.00
69784;BME280;57054;51.978;4.498;2022-12-07T03:59:56;101877.69;;;3.80;100.00
69784;BME280;57054;51.978;4.498;2022-12-07T04:02:23;101868.19;;;3.81;100.00
69784;BME280;57054;51.978;4.498;2022-12-07T04:04:49;101874.22;;;3.81;100.00
69784;BME280;57054;51.978;4.498;2022-12-07T04:07:14;101870.78;;;3.81;100.00
69784;BME280;57054;51.978;4.498;2022-12-07T04:09:39;101870.78;;;3.81;100.00
69784;BME280;57054;51.978;4.498;2022-12-07T04:12:05;101877.69;;;3.80;100.00
69784;BME280;57054;51.978;4.498;2022-12-07T04:14:30;101873.38;;;3.81;100.00
69784;BME280;57054;51.978;4.498;2022-12-07T04:16:57;101866.44;;;3.80;100.00
69784;BME280;57054;51.978;4.498;2022-12-07T04:19:23;101871.63;;;3.80;100.00
69784;BME280;57054;51.978;4.498;2022-12-07T04:21:49;101863.84;;;3.80;100.00
69784;BME280;57054;51.978;4.498;2022-12-07T04:24:14;101864.72;;;3.79;100.00
69784;BME280;57054;51.978;4.498;2022-12-07T04:26:41;101874.22;;;3.80;100.00
69784;BME280;57054;51.978;4.498;2022-12-07T04:29:06;101869.91;;;3.79;100.00
69784;BME280;57054;51.978;4.498;2022-12-07T04:31:31;101872.50;;;3.79;100.00
69784;BME280;57054;51.978;4.498;2022-12-07T04:33:57;101869.03;;;3.80;100.00
69784;BME280;57054;51.978;4.498;2022-12-07T04:36:22;101862.97;;;3.78;100.00
69784;BME280;57054;51.978;4.498;2022-12-07T04:38:47;101862.97;;;3.78;100.00
69784;BME280;57054;51.978;4.498;2022-12-07T04:41:13;101861.28;;;3.77;100.00
69784;BME280;57054;51.978;4.498;2022-12-07T04:43:38;101863.84;;;3.77;100.00
69784;BME280;57054;51.978;4.498;2022-12-07T04:46:04;101856.06;;;3.75;100.00
69784;BME280;57054;51.978;4.498;2022-12-07T04:48:29;101852.63;;;3.75;100.00
69784;BME280;57054;51.978;4.498;2022-12-07T04:50:54;101844.84;;;3.73;100.00
69784;BME280;57054;51.978;4.498;2022-12-07T04:53:20;101843.94;;;3.73;100.00
69784;BME280;57054;51.978;4.498;2022-12-07T04:55:45;101838.78;;;3.71;100.00
69784;BME280;57054;51.978;4.498;2022-12-07T04:58:10;101843.97;;;3.70;100.00
69784;BME280;57054;51.978;4.498;2022-12-07T05:00:36;101843.94;;;3.68;100.00
69784;BME280;57054;51.978;4.498;2022-12-07T05:03:01;101844.78;;;3.65;100.00
69784;BME280;57054;51.978;4.498;2022-12-07T05:05:26;101844.78;;;3.62;100.00
69784;BME280;57054;51.978;4.498;2022-12-07T05:07:52;101839.59;;;3.61;100.00
69784;BME280;57054;51.978;4.498;2022-12-07T05:10:17;101850.81;;;3.60;100.00
69784;BME280;57054;51.978;4.498;2022-12-07T05:12:42;101846.50;;;3.59;100.00
69784;BME280;57054;51.978;4.498;2022-12-07T05:15:07;101836.97;;;3.56;100.00
69784;BME280;57054;51.978;4.498;2022-12-07T05:17:33;101839.56;;;3.56;100.00
69784;BME280;57054;51.978;4.498;2022-12-07T05:19:58;101844.75;;;3.56;100.00
69784;BME280;57054;51.978;4.498;2022-12-07T05:22:23;101843.03;;;3.55;100.00
69784;BME280;57054;51.978;4.498;2022-12-07T05:24:52;101831.81;;;3.55;100.00
69784;BME280;57054;51.978;4.498;2022-12-07T05:27:18;101844.78;;;3.55;100.00
69784;BME280;57054;51.978;4.498;2022-12-07T05:29:43;101836.13;;;3.54;100.00
69784;BME280;57054;51.978;4.498;2022-12-07T05:32:08;101833.53;;;3.54;100.00
69784;BME280;57054;51.978;4.498;2022-12-07T05:34:34;101840.44;;;3.54;100.00
69784;BME280;57054;51.978;4.498;2022-12-07T05:36:59;101840.44;;;3.52;100.00
69784;BME280;57054;51.978;4.498;2022-12-07T05:39:24;101844.75;;;3.52;100.00
69784;BME280;57054;51.978;4.498;2022-12-07T05:41:50;101839.56;;;3.50;100.00
69784;BME280;57054;51.978;4.498;2022-12-07T05:44:34;101839.56;;;3.50;100.00
69784;BME280;57054;51.978;4.498;2022-12-07T05:46:59;101837.81;;;3.49;100.00
69784;BME280;57054;51.978;4.498;2022-12-07T05:49:24;101828.31;;;3.46;100.00
69784;BME280;57054;51.978;4.498;2022-12-07T05:51:49;101834.34;;;3.45;100.00
69784;BME280;57054;51.978;4.498;2022-12-07T05:54:15;101834.34;;;3.44;100.00
69784;BME280;57054;51.978;4.498;2022-12-07T05:56:40;101832.63;;;3.43;100.00
69784;BME280;57054;51.978;4.498;2022-12-07T05:59:05;101830.88;;;3.42;100.00
69784;BME280;57054;51.978;4.498;2022-12-07T06:02:02;101832.59;;;3.40;100.00
69784;BME280;57054;51.978;4.498;2022-12-07T06:04:29;101832.59;;;3.37;100.00
69784;BME280;57054;51.978;4.498;2022-12-07T06:06:55;101836.88;;;3.36;100.00
69784;BME280;57054;51.978;4.498;2022-12-07T06:09:21;101838.59;;;3.34;100.00
69784;BME280;57054;51.978;4.498;2022-12-07T06:11:46;101836.00;;;3.33;100.00
69784;BME280;57054;51.978;4.498;2022-12-07T06:14:30;101836.88;;;3.32;100.00
69784;BME280;57054;51.978;4.498;2022-12-07T06:16:55;101833.41;;;3.30;100.00
69784;BME280;57054;51.978;4.498;2022-12-07T06:19:21;101838.59;;;3.30;100.00
69784;BME280;57054;51.978;4.498;2022-12-07T06:21:46;101837.72;;;3.28;100.00
69784;BME280;57054;51.978;4.498;2022-12-07T06:24:11;101838.56;;;3.26;100.00
69784;BME280;57054;51.978;4.498;2022-12-07T06:26:37;101840.28;;;3.24;100.00
69784;BME280;57054;51.978;4.498;2022-12-07T06:29:03;101838.53;;;3.23;100.00
69784;BME280;57054;51.978;4.498;2022-12-07T06:31:28;101838.53;;;3.22;100.00
69784;BME280;57054;51.978;4.498;2022-12-07T06:34:00;101840.25;;;3.18;100.00
69784;BME280;57054;51.978;4.498;2022-12-07T06:36:26;101836.78;;;3.18;100.00
69784;BME280;57054;51.978;4.498;2022-12-07T06:38:51;101832.50;;;3.17;100.00
69784;BME280;57054;51.978;4.498;2022-12-07T06:41:17;101832.47;;;3.15;100.00
69784;BME280;57054;51.978;4.498;2022-12-07T06:43:42;101841.09;;;3.14;100.00
69784;BME280;57054;51.978;4.498;2022-12-07T06:46:07;101836.78;;;3.13;100.00
69784;BME280;57054;51.978;4.498;2022-12-07T06:48:33;101836.75;;;3.12;100.00
69784;BME280;57054;51.978;4.498;2022-12-07T06:50:58;101848.84;;;3.11;100.00
69784;BME280;57054;51.978;4.498;2022-12-07T06:53:23;101843.66;;;3.10;100.00
69784;BME280;57054;51.978;4.498;2022-12-07T06:55:48;101847.97;;;3.07;100.00
69784;BME280;57054;51.978;4.498;2022-12-07T06:58:14;101847.94;;;3.09;100.00
69784;BME280;57054;51.978;4.498;2022-12-07T07:00:39;101843.66;;;3.08;100.00
69784;BME280;57054;51.978;4.498;2022-12-07T07:03:04;101843.66;;;3.08;100.00
69784;BME280;57054;51.978;4.498;2022-12-07T07:05:29;101852.25;;;3.08;100.00
69784;BME280;57054;51.978;4.498;2022-12-07T07:07:55;101841.91;;;3.08;100.00
69784;BME280;57054;51.978;4.498;2022-12-07T07:10:20;101853.13;;;3.09;100.00
69784;BME280;57054;51.978;4.498;2022-12-07T07:12:45;101843.66;;;3.08;100.00
69784;BME280;57054;51.978;4.498;2022-12-07T07:15:10;101846.22;;;3.08;100.00
69784;BME280;57054;51.978;4.498;2022-12-07T07:17:37;101841.06;;;3.08;100.00
69784;BME280;57054;51.978;4.498;2022-12-07T07:20:02;101839.31;;;3.08;100.00
69784;BME280;57054;51.978;4.498;2022-12-07T07:22:28;101847.97;;;3.07;100.00
69784;BME280;57054;51.978;4.498;2022-12-07T07:24:53;101851.41;;;3.08;100.00
69784;BME280;57054;51.978;4.498;2022-12-07T07:27:18;101847.06;;;3.07;100.00
69784;BME280;57054;51.978;4.498;2022-12-07T07:29:43;101839.28;;;3.05;100.00
69784;BME280;57054;51.978;4.498;2022-12-07T07:32:09;101841.88;;;3.05;100.00
69784;BME280;57054;51.978;4.498;2022-12-07T07:34:34;101838.44;;;3.05;100.00
69784;BME280;57054;51.978;4.498;2022-12-07T07:36:59;101851.38;;;3.05;100.00
69784;BME280;57054;51.978;4.498;2022-12-07T07:39:24;101851.38;;;3.03;100.00
69784;BME280;57054;51.978;4.498;2022-12-07T07:41:50;101852.25;;;3.04;100.00
69784;BME280;57054;51.978;4.498;2022-12-07T07:44:15;101847.06;;;3.04;100.00
69784;BME280;57054;51.978;4.498;2022-12-07T07:46:40;101856.53;;;3.03;100.00
69784;BME280;57054;51.978;4.498;2022-12-07T07:49:05;101850.50;;;3.03;100.00
69784;BME280;57054;51.978;4.498;2022-12-07T07:51:31;101851.38;;;3.03;100.00
69784;BME280;57054;51.978;4.498;2022-12-07T07:53:56;101853.94;;;3.02;100.00
69784;BME280;57054;51.978;4.498;2022-12-07T07:56:21;101847.91;;;3.01;100.00
69784;BME280;57054;51.978;4.498;2022-12-07T07:58:46;101851.34;;;3.02;100.00
69784;BME280;57054;51.978;4.498;2022-12-07T08:01:12;101847.91;;;3.01;100.00
69784;BME280;57054;51.978;4.498;2022-12-07T08:03:38;101851.34;;;3.02;100.00
69784;BME280;57054;51.978;4.498;2022-12-07T08:06:04;101853.94;;;3.02;100.00
69784;BME280;57054;51.978;4.498;2022-12-07T08:08:29;101851.34;;;3.02;100.00
69784;BME280;57054;51.978;4.498;2022-12-07T08:10:54;101848.75;;;3.02;100.00
69784;BME280;57054;51.978;4.498;2022-12-07T08:13:20;101857.41;;;3.02;100.00
69784;BME280;57054;51.978;4.498;2022-12-07T08:15:46;101860.84;;;3.03;100.00
69784;BME280;57054;51.978;4.498;2022-12-07T08:18:12;101861.72;;;3.03;100.00
69784;BME280;57054;51.978;4.498;2022-12-07T08:20:38;101863.44;;;3.03;100.00
69784;BME280;57054;51.978;4.498;2022-12-07T08:23:03;101863.44;;;3.03;100.00
69784;BME280;57054;51.978;4.498;2022-12-07T08:25:29;101860.00;;;3.02;100.00
69784;BME280;57054;51.978;4.498;2022-12-07T08:27:54;101866.03;;;3.03;100.00
69784;BME280;57054;51.978;4.498;2022-12-07T08:30:20;101859.13;;;3.02;100.00
69784;BME280;57054;51.978;4.498;2022-12-07T08:32:46;101864.28;;;3.02;100.00
69784;BME280;57054;51.978;4.498;2022-12-07T08:35:11;101858.25;;;3.01;100.00
69784;BME280;57054;51.978;4.498;2022-12-07T08:37:37;101860.00;;;3.02;100.00
69784;BME280;57054;51.978;4.498;2022-12-07T08:40:04;101865.16;;;3.01;100.00
69784;BME280;57054;51.978;4.498;2022-12-07T08:42:29;101869.47;;;3.02;100.00
69784;BME280;57054;51.978;4.498;2022-12-07T08:45:02;101866.88;;;3.02;100.00
69784;BME280;57054;51.978;4.498;2022-12-07T08:47:28;101861.69;;;3.02;100.00
69784;BME280;57054;51.978;4.498;2022-12-07T08:49:53;101868.63;;;3.03;100.00
69784;BME280;57054;51.978;4.498;2022-12-07T08:52:19;101872.97;;;3.04;100.00
69784;BME280;57054;51.978;4.498;2022-12-07T08:54:44;101870.38;;;3.04;100.00
69784;BME280;57054;51.978;4.498;2022-12-07T08:57:10;101871.22;;;3.04;100.00
69784;BME280;57054;51.978;4.498;2022-12-07T08:59:35;101862.59;;;3.05;100.00
69784;BME280;57054;51.978;4.498;2022-12-07T09:02:02;101853.13;;;3.06;100.00
69784;BME280;57054;51.978;4.498;2022-12-07T09:04:27;101865.19;;;3.07;100.00
69784;BME280;57054;51.978;4.498;2022-12-07T09:06:53;101866.09;;;3.07;100.00
69784;BME280;57054;51.978;4.498;2022-12-07T09:09:19;101865.22;;;3.08;100.00
69784;BME280;57054;51.978;4.498;2022-12-07T09:11:44;101861.78;;;3.10;100.00
69784;BME280;57054;51.978;4.498;2022-12-07T09:14:10;101866.97;;;3.11;100.00
69784;BME280;57054;51.978;4.498;2022-12-07T09:16:35;101882.47;;;3.13;100.00
69784;BME280;57054;51.978;4.498;2022-12-07T09:19:00;101875.59;;;3.13;100.00
69784;BME280;57054;51.978;4.498;2022-12-07T09:21:26;101877.31;;;3.14;100.00
69784;BME280;57054;51.978;4.498;2022-12-07T09:23:51;101862.69;;;3.15;100.00
69784;BME280;57054;51.978;4.498;2022-12-07T09:26:16;101862.66;;;3.16;100.00
69784;BME280;57054;51.978;4.498;2022-12-07T09:28:42;101856.63;;;3.16;100.00
69784;BME280;57054;51.978;4.498;2022-12-07T09:31:07;101847.16;;;3.18;100.00
69784;BME280;57054;51.978;4.498;2022-12-07T09:33:32;101854.94;;;3.19;100.00
69784;BME280;57054;51.978;4.498;2022-12-07T09:35:57;101852.34;;;3.21;100.00
69784;BME280;57054;51.978;4.498;2022-12-07T09:38:23;101857.53;;;3.22;100.00
69784;BME280;57054;51.978;4.498;2022-12-07T09:40:49;101858.41;;;3.24;100.00
69784;BME280;57054;51.978;4.498;2022-12-07T09:43:15;101853.25;;;3.26;100.00
69784;BME280;57054;51.978;4.498;2022-12-07T09:45:42;101851.50;;;3.26;100.00
69784;BME280;57054;51.978;4.498;2022-12-07T09:48:50;101857.56;;;3.29;100.00
69784;BME280;57054;51.978;4.498;2022-12-07T09:50:57;101856.72;;;3.30;100.00
69784;BME280;57054;51.978;4.498;2022-12-07T09:53:28;101857.59;;;3.32;100.00
69784;BME280;57054;51.978;4.498;2022-12-07T09:55:54;101850.69;;;3.34;100.00
69784;BME280;57054;51.978;4.498;2022-12-07T09:58:23;101848.09;;;3.34;100.00
69784;BME280;57054;51.978;4.498;2022-12-07T10:00:59;101852.44;;;3.36;100.00
69784;BME280;57054;51.978;4.498;2022-12-07T10:03:28;101849.00;;;3.37;100.00
69784;BME280;57054;51.978;4.498;2022-12-07T10:05:54;101842.09;;;3.39;100.00
69784;BME280;57054;51.978;4.498;2022-12-07T10:08:19;101843.81;;;3.42;100.00
69784;BME280;57054;51.978;4.498;2022-12-07T10:10:46;101842.13;;;3.42;100.00
69784;BME280;57054;51.978;4.498;2022-12-07T10:13:14;101843.84;;;3.45;100.00
69784;BME280;57054;51.978;4.498;2022-12-07T10:15:44;101845.59;;;3.48;100.00
69784;BME280;57054;51.978;4.498;2022-12-07T10:21:25;101843.88;;;3.53;100.00
69784;BME280;57054;51.978;4.498;2022-12-07T10:24:01;101836.13;;;3.54;100.00
69784;BME280;57054;51.978;4.498;2022-12-07T10:28:55;101843.03;;;3.58;100.00
69784;BME280;57054;51.978;4.498;2022-12-07T10:31:21;101835.28;;;3.61;100.00
69784;BME280;57054;51.978;4.498;2022-12-07T10:39:32;101825.81;;;3.67;100.00
69784;BME280;57054;51.978;4.498;2022-12-07T10:44:24;101820.66;;;3.70;100.00
69784;BME280;57054;51.978;4.498;2022-12-07T10:46:53;101816.34;;;3.72;100.00
69784;BME280;57054;51.978;4.498;2022-12-07T10:52:02;101809.44;;;3.75;100.00
69784;BME280;57054;51.978;4.498;2022-12-07T11:00:18;101798.22;;;3.81;100.00
69784;BME280;57054;51.978;4.498;2022-12-07T11:18:02;101776.66;;;3.97;100.00
69784;BME280;57054;51.978;4.498;2022-12-07T11:25:46;101762.84;;;4.03;100.00
69784;BME280;57054;51.978;4.498;2022-12-07T11:38:11;101754.22;;;4.12;100.00
69784;BME280;57054;51.978;4.498;2022-12-07T11:40:37;101763.72;;;4.14;100.00
69784;BME280;57054;51.978;4.498;2022-12-07T11:43:13;101770.63;;;4.17;100.00
69784;BME280;57054;51.978;4.498;2022-12-07T11:45:41;101789.66;;;4.17;100.00
69784;BME280;57054;51.978;4.498;2022-12-07T11:50:40;101797.44;;;4.11;100.00
69784;BME280;57054;51.978;4.498;2022-12-07T11:55:52;101784.44;;;4.08;100.00
69784;BME280;57054;51.978;4.498;2022-12-07T12:03:49;101758.53;;;4.10;100.00
69784;BME280;57054;51.978;4.498;2022-12-07T12:06:15;101767.19;;;4.12;100.00
69784;BME280;57054;51.978;4.498;2022-12-07T12:08:55;101761.13;;;4.14;100.00
69784;BME280;57054;51.978;4.498;2022-12-07T12:11:27;101753.34;;;4.16;100.00
69784;BME280;57054;51.978;4.498;2022-12-07T12:21:41;101745.56;;;4.25;100.00
69784;BME280;57054;51.978;4.498;2022-12-07T12:24:18;101742.13;;;4.26;100.00
69784;BME280;57054;51.978;4.498;2022-12-07T12:26:51;101737.78;;;4.28;100.00
69784;BME280;57054;51.978;4.498;2022-12-07T12:29:27;101743.84;;;4.30;100.00
69784;BME280;57054;51.978;4.498;2022-12-07T12:40:37;101725.66;;;4.36;100.00
69784;BME280;57054;51.978;4.498;2022-12-07T12:42:57;101720.50;;;4.39;100.00
69784;BME280;57054;51.978;4.498;2022-12-07T12:45:26;101710.13;;;4.41;100.00
69784;BME280;57054;51.978;4.498;2022-12-07T12:52:49;101705.78;;;4.48;100.00
69784;BME280;57054;51.978;4.498;2022-12-07T12:55:16;101703.19;;;4.49;100.00
69784;BME280;57054;51.978;4.498;2022-12-07T12:57:46;101688.50;;;4.51;100.00
69784;BME280;57054;51.978;4.498;2022-12-07T13:02:55;101688.47;;;4.54;100.00
69784;BME280;57054;51.978;4.498;2022-12-07T13:05:25;101682.44;;;4.57;100.00
69784;BME280;57054;51.978;4.498;2022-12-07T13:07:54;101687.63;;;4.57;100.00
69784;BME280;57054;51.978;4.498;2022-12-07T13:12:54;101688.47;;;4.60;100.00
69784;BME280;57054;51.978;4.498;2022-12-07T13:18:25;101691.94;;;4.61;100.00
69784;BME280;57054;51.978;4.498;2022-12-07T13:23:16;101682.41;;;4.63;100.00
69784;BME280;57054;51.978;4.498;2022-12-07T13:25:54;101680.69;;;4.60;100.00
69784;BME280;57054;51.978;4.498;2022-12-07T13:28:21;101677.22;;;4.60;100.00
69784;BME280;57054;51.978;4.498;2022-12-07T13:33:12;101665.13;;;4.62;100.00
69784;BME280;57054;51.978;4.498;2022-12-07T13:35:38;101656.47;;;4.61;100.00
69784;BME280;57054;51.978;4.498;2022-12-07T13:38:16;101650.41;;;4.63;100.00
69784;BME280;57054;51.978;4.498;2022-12-07T13:40:41;101650.41;;;4.64;100.00
69784;BME280;57054;51.978;4.498;2022-12-07T13:43:14;101649.53;;;4.67;100.00
69784;BME280;57054;51.978;4.498;2022-12-07T13:45:41;101648.69;;;4.68;100.00
69784;BME280;57054;51.978;4.498;2022-12-07T13:48:22;101647.78;;;4.70;100.00
69784;BME280;57054;51.978;4.498;2022-12-07T13:50:53;101642.59;;;4.70;100.00
69784;BME280;57054;51.978;4.498;2022-12-07T13:53:19;101642.59;;;4.69;100.00
69784;BME280;57054;51.978;4.498;2022-12-07T13:55:45;101642.59;;;4.70;100.00
69784;BME280;57054;51.978;4.498;2022-12-07T13:58:11;101637.41;;;4.72;100.00
69784;BME280;57054;51.978;4.498;2022-12-07T14:00:36;101633.06;;;4.72;100.00
69784;BME280;57054;51.978;4.498;2022-12-07T14:03:03;101640.00;;;4.75;100.00
69784;BME280;57054;51.978;4.498;2022-12-07T14:05:29;101633.06;;;4.75;100.00
69784;BME280;57054;51.978;4.498;2022-12-07T14:07:56;101633.06;;;4.75;100.00
69784;BME280;57054;51.978;4.498;2022-12-07T14:10:26;101632.22;;;4.75;100.00
69784;BME280;57054;51.978;4.498;2022-12-07T14:12:52;101640.00;;;4.75;100.00
69784;BME280;57054;51.978;4.498;2022-12-07T14:15:21;101620.94;;;4.73;100.00
69784;BME280;57054;51.978;4.498;2022-12-07T14:17:50;101627.03;;;4.73;100.00
69784;BME280;57054;51.978;4.498;2022-12-07T14:20:35;101629.63;;;4.73;100.00
69784;BME280;57054;51.978;4.498;2022-12-07T14:23:02;101631.31;;;4.76;100.00
69784;BME280;57054;51.978;4.498;2022-12-07T14:25:34;101625.28;;;4.77;100.00
69784;BME280;57054;51.978;4.498;2022-12-07T14:28:09;101627.00;;;4.78;100.00
69784;BME280;57054;51.978;4.498;2022-12-07T14:30:49;101624.41;;;4.79;100.00
69784;BME280;57054;51.978;4.498;2022-12-07T14:33:14;101615.75;;;4.80;100.00
69784;BME280;57054;51.978;4.498;2022-12-07T14:35:40;101614.88;;;4.83;100.00
69784;BME280;57054;51.978;4.498;2022-12-07T14:38:05;101609.66;;;4.85;100.00
69784;BME280;57054;51.978;4.498;2022-12-07T14:40:30;101608.78;;;4.87;100.00
69784;BME280;57054;51.978;4.498;2022-12-07T14:43:06;101605.31;;;4.88;100.00
69784;BME280;57054;51.978;4.498;2022-12-07T14:45:33;101600.13;;;4.90;100.00
69784;BME280;57054;51.978;4.498;2022-12-07T14:47:59;101596.66;;;4.91;100.00
69784;BME280;57054;51.978;4.498;2022-12-07T14:50:24;101593.19;;;4.92;100.00
69784;BME280;57054;51.978;4.498;2022-12-07T14:52:51;101594.91;;;4.93;100.00
69784;BME280;57054;51.978;4.498;2022-12-07T14:55:23;101594.91;;;4.94;100.00
69784;BME280;57054;51.978;4.498;2022-12-07T14:57:49;101594.91;;;4.96;100.00
69784;BME280;57054;51.978;4.498;2022-12-07T15:00:15;101593.16;;;4.96;100.00
69784;BME280;57054;51.978;4.498;2022-12-07T15:02:42;101606.13;;;4.98;100.00
69784;BME280;57054;51.978;4.498;2022-12-07T15:05:07;101607.03;;;4.98;100.00
69784;BME280;57054;51.978;4.498;2022-12-07T15:07:32;101603.53;;;4.98;100.00